Time;durP1;ratioP1;P1;durP2;ratioP2;P2;SDS_P1;SDS_P2;PMS_P1;PMS_P2;Temp;Humidity;BMP_temperature;BMP_pressure;BME280_temperature;BME280_humidity;BME280_pressure;Samples;Min_cycle;Max_cycle;Signal;HPM_P1;HPM_P2
2022/10/21 00:02:20;;;;;;;7.50;1.88;;;17.60;99.90;;;;;;4996044;28;20185;-88
2022/10/21 00:04:45;;;;;;;6.93;1.65;;;17.70;99.90;;;;;;4995826;28;20205;-79
2022/10/21 00:07:11;;;;;;;3.80;2.00;;;17.70;99.90;;;;;;4994409;28;20204;-79
2022/10/21 00:09:36;;;;;;;6.20;2.03;;;17.80;99.90;;;;;;4995557;28;20179;-84
2022/10/21 00:12:02;;;;;;;4.47;1.92;;;17.70;99.90;;;;;;4995644;28;20171;-82
2022/10/21 00:14:28;;;;;;;3.30;2.05;;;17.60;99.90;;;;;;4995674;28;20212;-83
2022/10/21 00:16:53;;;;;;;4.03;1.95;;;17.80;99.90;;;;;;4995300;28;20640;-79
2022/10/21 00:19:19;;;;;;;8.55;2.00;;;17.80;99.90;;;;;;5010604;28;20165;-79
2022/10/21 00:21:44;;;;;;;4.25;2.08;;;17.70;99.90;;;;;;4995231;28;20627;-82
2022/10/21 00:24:10;;;;;;;2.15;1.60;;;17.70;99.90;;;;;;4994915;28;20216;-79
2022/10/21 00:26:36;;;;;;;3.75;2.58;;;17.60;99.90;;;;;;4995210;28;20607;-79
2022/10/21 00:29:01;;;;;;;4.15;2.28;;;17.40;99.90;;;;;;4995185;28;20232;-79
2022/10/21 00:31:27;;;;;;;6.40;2.88;;;17.40;99.90;;;;;;4994968;28;20173;-79
2022/10/21 00:33:53;;;;;;;5.07;2.40;;;17.30;99.90;;;;;;4994916;28;20176;-79
2022/10/21 00:36:19;;;;;;;8.70;2.30;;;17.40;99.90;;;;;;5010135;28;20188;-79
2022/10/21 00:38:47;;;;;;;4.57;2.22;;;17.40;99.90;;;;;;5009955;28;20173;-78
2022/10/21 00:41:14;;;;;;;7.70;2.08;;;17.50;99.90;;;;;;4994850;28;20169;-78
2022/10/21 00:43:53;;;;;;;6.88;1.60;;;17.40;99.90;;;;;;4994819;28;20252;-79
2022/10/21 00:46:32;;;;;;;4.13;2.35;;;17.30;99.90;;;;;;4996128;28;20196;-87
2022/10/21 00:49:00;;;;;;;6.97;1.83;;;17.40;99.90;;;;;;4995067;28;20185;-80
2022/10/21 00:51:26;;;;;;;27.73;2.38;;;17.30;99.90;;;;;;4995569;28;20238;-79
2022/10/21 00:53:51;;;;;;;2.50;1.70;;;17.30;99.90;;;;;;4994316;28;20166;-81
2022/10/21 00:56:23;;;;;;;8.13;1.73;;;17.40;99.90;;;;;;4994111;28;20643;-79
2022/10/21 00:58:50;;;;;;;3.95;1.67;;;17.20;99.90;;;;;;4994726;28;20196;-79
2022/10/21 01:01:17;;;;;;;4.15;1.25;;;17.20;99.90;;;;;;4993215;28;20173;-79
2022/10/21 01:03:42;;;;;;;7.25;1.77;;;17.20;99.90;;;;;;4993240;28;20212;-81
2022/10/21 01:06:10;;;;;;;4.35;1.65;;;17.20;99.90;;;;;;4994110;28;20550;-80
2022/10/21 01:08:37;;;;;;;2.90;1.50;;;17.30;99.90;;;;;;4994210;28;20173;-79
2022/10/21 01:11:04;;;;;;;9.35;1.85;;;17.20;99.90;;;;;;4994293;28;20196;-79
2022/10/21 01:13:53;;;;;;;7.90;2.17;;;17.10;99.90;;;;;;4993816;28;20185;-79
2022/10/21 01:16:32;;;;;;;10.10;1.75;;;17.00;99.90;;;;;;4992727;28;20253;-79
2022/10/21 01:19:00;;;;;;;1.77;1.00;;;17.10;99.90;;;;;;4992852;28;20169;-78
2022/10/21 01:21:30;;;;;;;2.38;1.17;;;17.00;99.90;;;;;;4994054;28;20169;-83
2022/10/21 01:24:03;;;;;;;2.80;1.50;;;17.00;99.90;;;;;;4993951;28;20671;-78
2022/10/21 01:26:54;;;;;;;5.30;1.30;;;17.10;99.90;;;;;;5000626;28;20173;-84
2022/10/21 01:29:50;;;;;;;9.52;2.10;;;17.10;99.90;;;;;;5016316;28;20153;-94
2022/10/21 01:32:23;;;;;;;3.08;1.20;;;17.00;99.90;;;;;;4995819;28;20165;-79
2022/10/21 01:35:02;;;;;;;5.07;1.83;;;16.90;99.90;;;;;;4992819;28;20177;-79
2022/10/21 01:37:54;;;;;;;7.20;2.10;;;16.90;99.90;;;;;;4994406;28;20272;-78
2022/10/21 01:40:29;;;;;;;2.45;1.23;;;16.90;99.90;;;;;;4993037;28;20173;-79
2022/10/21 01:42:59;;;;;;;2.10;1.27;;;16.90;99.90;;;;;;4993485;28;20198;-78
2022/10/21 01:45:49;;;;;;;3.90;1.50;;;17.00;99.90;;;;;;4993649;28;20216;-81
2022/10/21 01:48:20;;;;;;;10.45;1.38;;;17.00;99.90;;;;;;4993619;28;20616;-80
2022/10/21 01:50:54;;;;;;;1.60;1.40;;;16.90;99.90;;;;;;4993718;28;20173;-79
2022/10/21 01:53:25;;;;;;;10.90;1.75;;;16.80;99.90;;;;;;4994051;28;20228;-78
2022/10/21 01:55:51;;;;;;;2.05;1.40;;;16.90;99.90;;;;;;4992162;28;20193;-91
2022/10/21 01:58:22;;;;;;;2.05;1.50;;;16.90;99.90;;;;;;4993363;28;20161;-80
2022/10/21 02:00:50;;;;;;;3.08;1.40;;;16.80;99.90;;;;;;4993588;28;20679;-79
2022/10/21 02:03:21;;;;;;;5.07;1.75;;;16.80;99.90;;;;;;4993177;28;20209;-79
2022/10/21 02:05:46;;;;;;;12.05;1.55;;;16.90;99.90;;;;;;4991933;28;20208;-79
2022/10/21 02:08:12;;;;;;;2.13;1.20;;;16.90;99.90;;;;;;4993300;28;20640;-79
2022/10/21 02:10:43;;;;;;;5.28;1.38;;;16.90;99.90;;;;;;4992035;28;20169;-79
2022/10/21 02:13:12;;;;;;;13.10;1.77;;;16.90;99.90;;;;;;4993218;28;20165;-79
2022/10/21 02:15:39;;;;;;;1.42;1.23;;;16.90;99.90;;;;;;4993114;28;20204;-79
2022/10/21 02:18:08;;;;;;;12.30;1.60;;;16.80;99.90;;;;;;4992011;28;20177;-79
2022/10/21 02:20:39;;;;;;;3.42;2.13;;;16.60;99.90;;;;;;4993129;28;20191;-90
2022/10/21 02:23:08;;;;;;;3.00;1.15;;;16.60;99.90;;;;;;4992968;28;20243;-79
2022/10/21 02:25:38;;;;;;;9.05;1.45;;;16.50;99.90;;;;;;4991733;28;20268;-78
2022/10/21 02:28:03;;;;;;;3.22;1.55;;;16.60;99.90;;;;;;4993163;28;20315;-78
2022/10/21 02:30:46;;;;;;;10.40;1.52;;;16.40;99.90;;;;;;4993148;28;20640;-79
2022/10/21 02:33:18;;;;;;;3.80;1.55;;;16.40;99.90;;;;;;4992819;28;20165;-79
2022/10/21 02:35:58;;;;;;;5.45;1.17;;;16.20;99.90;;;;;;4992928;28;20243;-79
2022/10/21 02:38:27;;;;;;;2.85;1.20;;;16.10;99.90;;;;;;4992948;28;20255;-79
2022/10/21 02:41:12;;;;;;;10.63;1.67;;;16.20;99.90;;;;;;4993139;28;20170;-79
2022/10/21 02:43:50;;;;;;;5.22;1.42;;;16.20;99.90;;;;;;4993020;28;20238;-79
2022/10/21 02:46:16;;;;;;;5.25;1.33;;;16.30;99.90;;;;;;4992859;28;20272;-78
2022/10/21 02:48:44;;;;;;;3.28;1.63;;;16.10;99.90;;;;;;4993050;28;20801;-79
2022/10/21 02:51:11;;;;;;;2.75;2.03;;;16.20;99.90;;;;;;4993033;28;20158;-79
2022/10/21 02:53:37;;;;;;;5.13;1.80;;;16.20;99.90;;;;;;4992908;28;20169;-80
2022/10/21 02:56:03;;;;;;;5.65;1.48;;;16.00;99.90;;;;;;4992939;28;20605;-79
2022/10/21 02:58:29;;;;;;;3.45;1.50;;;16.10;99.90;;;;;;4992576;28;20178;-79
2022/10/21 03:00:54;;;;;;;3.17;1.38;;;16.00;99.90;;;;;;4992685;28;20211;-79
2022/10/21 03:03:20;;;;;;;6.53;1.30;;;16.00;99.90;;;;;;4993022;28;20196;-79
2022/10/21 03:05:46;;;;;;;4.78;1.38;;;15.90;99.90;;;;;;4992856;28;20496;-79
2022/10/21 03:08:12;;;;;;;3.53;1.52;;;15.90;99.90;;;;;;4992771;28;20197;-79
2022/10/21 03:10:37;;;;;;;6.28;1.48;;;15.90;99.90;;;;;;4992637;28;20177;-78
2022/10/21 03:13:03;;;;;;;9.27;1.50;;;15.90;99.90;;;;;;4992922;28;20170;-81
2022/10/21 03:15:29;;;;;;;2.25;1.45;;;15.80;99.90;;;;;;4992460;28;20701;-79
2022/10/21 03:17:54;;;;;;;3.58;1.48;;;15.80;99.90;;;;;;4994246;28;20186;-84
2022/10/21 03:20:20;;;;;;;8.70;1.95;;;15.80;99.90;;;;;;4996318;28;20527;-88
2022/10/21 03:22:45;;;;;;;1.52;1.40;;;15.90;99.90;;;;;;4996430;28;20200;-90
2022/10/21 03:25:11;;;;;;;2.58;1.70;;;15.90;99.90;;;;;;4995272;28;20264;-83
2022/10/21 03:27:38;;;;;;;6.20;1.75;;;15.80;99.90;;;;;;5011890;28;20239;-79
2022/10/21 03:30:05;;;;;;;9.15;2.10;;;15.70;99.90;;;;;;4996174;28;20169;-79
2022/10/21 03:32:31;;;;;;;7.65;2.10;;;15.80;99.90;;;;;;4995811;28;20224;-79
2022/10/21 03:34:57;;;;;;;8.65;2.28;;;15.80;99.90;;;;;;4996214;28;20639;-79
2022/10/21 03:37:22;;;;;;;3.20;1.98;;;15.70;99.90;;;;;;4996483;28;20225;-79
2022/10/21 03:39:48;;;;;;;5.18;1.83;;;15.60;99.90;;;;;;4996081;28;20181;-79
2022/10/21 03:42:13;;;;;;;4.00;2.30;;;15.70;99.90;;;;;;4995479;28;20181;-79
2022/10/21 03:44:39;;;;;;;11.18;1.92;;;15.70;99.90;;;;;;5011117;28;20204;-79
2022/10/21 03:47:05;;;;;;;2.30;1.58;;;15.60;99.90;;;;;;4995668;28;20189;-79
2022/10/21 03:49:31;;;;;;;9.15;1.65;;;15.60;99.90;;;;;;5010768;28;20215;-86
2022/10/21 03:51:56;;;;;;;9.75;2.38;;;15.70;99.90;;;;;;4997602;28;20520;-79
2022/10/21 03:54:22;;;;;;;2.42;1.55;;;15.70;99.90;;;;;;5007397;28;20228;-83
2022/10/21 03:56:48;;;;;;;5.55;1.67;;;15.60;99.90;;;;;;5013486;28;20185;-82
2022/10/21 03:59:13;;;;;;;7.78;2.13;;;15.50;99.90;;;;;;4998451;28;20173;-79
2022/10/21 04:01:39;;;;;;;10.02;2.25;;;15.60;99.90;;;;;;4995846;28;20173;-80
2022/10/21 04:04:04;;;;;;;5.72;2.53;;;15.60;99.90;;;;;;5010783;28;20292;-79
2022/10/21 04:06:30;;;;;;;6.88;5.65;;;15.60;99.90;;;;;;4995624;28;20620;-79
2022/10/21 04:08:56;;;;;;;13.70;2.65;;;15.60;99.90;;;;;;4995376;28;20170;-79
2022/10/21 04:11:21;;;;;;;4.40;2.30;;;15.70;99.90;;;;;;5010396;28;20184;-81
2022/10/21 04:13:47;;;;;;;14.82;2.15;;;15.70;99.90;;;;;;4995339;28;20189;-85
2022/10/21 04:16:15;;;;;;;6.10;2.45;;;15.70;99.90;;;;;;4995098;28;20189;-79
2022/10/21 04:18:41;;;;;;;5.53;2.80;;;15.80;99.90;;;;;;4995126;28;20620;-79
2022/10/21 04:21:07;;;;;;;3.72;1.85;;;15.80;99.90;;;;;;4995037;28;20539;-78
2022/10/21 04:23:33;;;;;;;7.32;2.55;;;15.80;99.90;;;;;;4993905;28;20205;-82
2022/10/21 04:25:59;;;;;;;6.75;1.95;;;15.90;99.90;;;;;;5010008;28;20216;-79
2022/10/21 04:28:25;;;;;;;3.35;2.08;;;15.90;99.90;;;;;;4993235;28;20170;-79
2022/10/21 04:30:51;;;;;;;2.65;1.98;;;16.00;99.90;;;;;;5009820;28;20671;-88
2022/10/21 04:33:16;;;;;;;3.75;1.83;;;16.00;99.90;;;;;;4994938;28;20169;-92
2022/10/21 04:35:42;;;;;;;5.07;2.63;;;16.10;99.90;;;;;;4993731;28;20203;-79
2022/10/21 04:38:07;;;;;;;6.93;2.08;;;16.10;99.90;;;;;;4994761;28;20539;-79
2022/10/21 04:40:33;;;;;;;7.30;3.03;;;16.20;99.90;;;;;;5009697;28;20173;-79
2022/10/21 04:42:58;;;;;;;4.28;2.47;;;16.20;99.90;;;;;;4995704;28;20193;-79
2022/10/21 04:45:24;;;;;;;9.40;2.42;;;16.20;99.90;;;;;;4994775;28;20223;-89
2022/10/21 04:47:50;;;;;;;4.95;2.10;;;16.10;99.90;;;;;;4994569;28;20208;-83
2022/10/21 04:50:15;;;;;;;4.00;2.30;;;16.10;99.90;;;;;;4994782;28;20172;-88
2022/10/21 04:52:41;;;;;;;4.45;1.65;;;16.20;99.90;;;;;;4994697;28;20169;-84
2022/10/21 04:55:07;;;;;;;9.88;3.45;;;16.30;99.90;;;;;;4994504;28;20297;-86
2022/10/21 04:57:33;;;;;;;9.30;2.45;;;16.20;99.90;;;;;;4994289;28;20193;-80
2022/10/21 04:59:58;;;;;;;10.68;2.72;;;16.20;99.90;;;;;;4994474;28;20180;-79
2022/10/21 05:02:24;;;;;;;13.75;2.15;;;16.20;99.90;;;;;;4994542;28;20185;-81
2022/10/21 05:04:49;;;;;;;7.10;2.15;;;16.20;99.90;;;;;;5009480;28;20217;-79
2022/10/21 05:07:15;;;;;;;6.40;2.47;;;16.30;99.90;;;;;;4994051;28;20272;-79
2022/10/21 05:09:40;;;;;;;4.50;2.10;;;16.30;99.90;;;;;;4994438;28;20180;-80
2022/10/21 05:12:06;;;;;;;3.97;2.25;;;16.30;99.90;;;;;;4994160;28;20502;-79
2022/10/21 05:14:32;;;;;;;8.27;2.28;;;16.30;99.90;;;;;;4994361;28;20193;-79
2022/10/21 05:16:57;;;;;;;3.95;2.35;;;16.50;99.90;;;;;;4994116;28;20196;-79
2022/10/21 05:19:23;;;;;;;4.20;2.58;;;16.60;99.90;;;;;;5009230;28;20698;-79
2022/10/21 05:21:49;;;;;;;13.45;3.63;;;16.60;99.90;;;;;;4994568;28;20265;-79
2022/10/21 05:24:15;;;;;;;9.05;2.38;;;16.60;99.90;;;;;;4994784;28;20216;-79
2022/10/21 05:26:41;;;;;;;7.13;2.45;;;16.70;99.90;;;;;;4993646;28;20286;-79
2022/10/21 05:29:07;;;;;;;7.43;2.35;;;16.80;99.90;;;;;;5008828;28;20971;-84
2022/10/21 05:31:32;;;;;;;8.43;2.38;;;16.80;99.90;;;;;;4993893;28;20169;-88
2022/10/21 05:33:58;;;;;;;5.05;1.58;;;16.80;99.90;;;;;;4993761;28;20183;-83
2022/10/21 05:36:24;;;;;;;7.18;2.20;;;17.00;99.90;;;;;;4993479;28;20216;-79
2022/10/21 05:38:49;;;;;;;11.45;1.58;;;16.90;99.90;;;;;;5008764;28;20239;-79
2022/10/21 05:41:15;;;;;;;6.85;1.88;;;17.00;99.90;;;;;;4992969;28;20174;-79
2022/10/21 05:43:41;;;;;;;8.90;2.00;;;17.00;99.90;;;;;;4993619;28;20267;-80
2022/10/21 05:46:08;;;;;;;6.85;2.13;;;17.00;99.90;;;;;;4993785;28;20264;-79
2022/10/21 05:48:34;;;;;;;7.65;2.00;;;16.90;99.90;;;;;;4993516;28;20220;-85
2022/10/21 05:50:59;;;;;;;2.72;2.08;;;17.00;99.90;;;;;;4992650;28;20165;-83
2022/10/21 05:53:25;;;;;;;7.57;2.22;;;17.00;99.90;;;;;;4993490;28;20508;-88
2022/10/21 05:55:59;;;;;;;4.60;1.58;;;17.10;99.90;;;;;;4993277;28;20191;-80
2022/10/21 05:58:25;;;;;;;14.13;2.40;;;17.10;99.90;;;;;;5008547;28;20169;-79
2022/10/21 06:00:55;;;;;;;7.38;2.28;;;17.10;99.90;;;;;;5008672;28;20201;-79
2022/10/21 06:03:29;;;;;;;2.55;1.83;;;17.10;99.90;;;;;;4991749;28;20291;-79
2022/10/21 06:05:56;;;;;;;6.45;1.90;;;17.10;99.90;;;;;;4993201;28;20188;-79
2022/10/21 06:08:22;;;;;;;9.98;2.08;;;17.10;99.90;;;;;;4993239;28;20162;-79
2022/10/21 06:10:47;;;;;;;5.18;1.77;;;17.00;99.90;;;;;;4992982;28;20180;-79
2022/10/21 06:13:13;;;;;;;6.07;2.17;;;17.10;99.90;;;;;;4991908;28;20169;-79
2022/10/21 06:15:38;;;;;;;4.45;2.35;;;17.10;99.90;;;;;;4993271;28;20231;-81
2022/10/21 06:18:04;;;;;;;10.00;2.83;;;17.20;99.90;;;;;;5008831;28;20554;-80
2022/10/21 06:20:30;;;;;;;8.02;2.30;;;17.00;99.90;;;;;;4998136;28;20204;-80
2022/10/21 06:22:59;;;;;;;6.32;2.35;;;16.90;99.90;;;;;;5027362;28;20177;-92
2022/10/21 06:25:24;;;;;;;8.27;2.17;;;17.00;99.90;;;;;;5005476;28;20193;-82
2022/10/21 06:27:52;;;;;;;13.85;2.47;;;17.10;99.90;;;;;;4994958;28;20168;-80
2022/10/21 06:30:17;;;;;;;6.05;1.88;;;17.00;99.90;;;;;;4992514;28;20227;-78
2022/10/21 06:32:43;;;;;;;10.40;2.63;;;17.00;99.90;;;;;;4993466;28;20668;-85
2022/10/21 06:35:09;;;;;;;11.07;2.10;;;16.90;99.90;;;;;;4993804;28;20170;-78
2022/10/21 06:37:34;;;;;;;5.78;1.85;;;16.90;99.90;;;;;;4993607;28;20188;-78
2022/10/21 06:40:00;;;;;;;9.43;2.42;;;16.90;99.90;;;;;;4993263;28;20177;-92
2022/10/21 06:42:25;;;;;;;3.92;2.25;;;17.00;99.90;;;;;;4992732;28;20177;-78
2022/10/21 06:44:51;;;;;;;13.65;2.25;;;17.20;99.90;;;;;;4992972;28;20208;-79
2022/10/21 06:47:17;;;;;;;2.92;2.10;;;17.20;99.90;;;;;;4993025;28;20193;-79
2022/10/21 06:49:42;;;;;;;5.32;2.35;;;17.20;99.90;;;;;;4993695;28;20265;-80
2022/10/21 06:52:08;;;;;;;5.22;1.63;;;17.20;99.90;;;;;;4993418;28;20170;-78
2022/10/21 06:54:34;;;;;;;9.95;2.40;;;17.20;99.90;;;;;;4996835;28;20168;-78
2022/10/21 06:56:59;;;;;;;4.63;2.40;;;17.20;99.90;;;;;;4997123;28;20240;-88
2022/10/21 06:59:25;;;;;;;3.83;2.45;;;17.20;99.90;;;;;;4994071;28;20177;-83
2022/10/21 07:01:50;;;;;;;3.65;2.22;;;17.40;99.90;;;;;;5014459;28;20168;-79
2022/10/21 07:04:16;;;;;;;13.10;2.40;;;17.50;99.90;;;;;;5014298;28;20204;-80
2022/10/21 07:06:42;;;;;;;11.23;2.55;;;17.60;99.90;;;;;;4996870;28;20208;-79
2022/10/21 07:09:08;;;;;;;2.45;1.80;;;17.50;99.90;;;;;;4997959;28;20181;-88
2022/10/21 07:11:34;;;;;;;6.07;2.78;;;17.60;99.90;;;;;;4996536;28;20320;-91
2022/10/21 07:14:00;;;;;;;10.38;2.42;;;17.60;99.90;;;;;;4995892;28;20263;-86
2022/10/21 07:16:32;;;;;;;9.35;2.50;;;17.50;99.90;;;;;;4995970;28;20189;-93
2022/10/21 07:18:57;;;;;;;6.15;2.13;;;17.60;99.90;;;;;;5008190;28;20622;-93
2022/10/21 07:21:25;;;;;;;4.93;2.35;;;17.70;99.90;;;;;;5017361;28;20161;-89
2022/10/21 07:23:52;;;;;;;2.85;2.00;;;17.70;99.90;;;;;;5016279;28;20214;-93
2022/10/21 07:26:19;;;;;;;3.63;2.13;;;17.70;99.90;;;;;;5015431;28;20180;-92
2022/10/21 07:28:46;;;;;;;6.28;1.90;;;17.70;99.90;;;;;;5004073;28;20188;-94
2022/10/21 07:31:17;;;;;;;3.08;1.85;;;17.70;99.90;;;;;;4996350;28;20164;-79
2022/10/21 07:33:43;;;;;;;5.43;1.92;;;17.60;99.90;;;;;;5007008;28;20231;-83
2022/10/21 07:36:12;;;;;;;3.08;2.00;;;17.60;99.90;;;;;;5015614;28;20192;-95
2022/10/21 07:38:38;;;;;;;5.07;1.75;;;17.70;99.90;;;;;;5015554;28;20638;-79
2022/10/21 07:41:04;;;;;;;4.28;2.10;;;17.70;99.90;;;;;;5015970;28;20168;-78
2022/10/21 07:43:31;;;;;;;5.13;1.98;;;17.70;99.90;;;;;;5015262;28;20235;-92
2022/10/21 07:45:58;;;;;;;16.80;2.33;;;17.90;99.90;;;;;;4994021;28;20539;-78
2022/10/21 07:48:24;;;;;;;7.53;2.30;;;17.80;99.90;;;;;;4997997;28;20177;-78
2022/10/21 07:50:50;;;;;;;3.38;1.55;;;17.70;99.90;;;;;;4994921;28;20235;-91
2022/10/21 07:53:17;;;;;;;5.50;2.17;;;17.80;99.90;;;;;;4996035;28;20165;-86
2022/10/21 07:55:42;;;;;;;7.72;1.95;;;17.90;99.90;;;;;;4995584;28;20247;-91
2022/10/21 07:58:08;;;;;;;8.30;1.70;;;18.00;99.90;;;;;;4995321;28;20203;-79
2022/10/21 08:00:34;;;;;;;4.13;2.15;;;18.10;99.90;;;;;;4995515;28;20181;-90
2022/10/21 08:03:00;;;;;;;3.08;1.83;;;17.90;99.90;;;;;;4992875;28;20181;-91
2022/10/21 08:05:25;;;;;;;10.20;1.60;;;17.90;99.90;;;;;;5014506;28;20180;-91
2022/10/21 08:07:51;;;;;;;2.47;1.67;;;18.00;99.90;;;;;;5009547;28;20180;-77
2022/10/21 08:10:17;;;;;;;5.43;1.60;;;18.20;99.90;;;;;;4995619;28;20536;-78
2022/10/21 08:12:43;;;;;;;3.30;1.60;;;18.30;99.90;;;;;;4992508;28;20265;-78
2022/10/21 08:15:09;;;;;;;5.95;1.88;;;18.10;99.90;;;;;;4995023;28;20193;-77
2022/10/21 08:17:34;;;;;;;4.55;1.50;;;18.30;99.90;;;;;;4995229;28;20181;-92
2022/10/21 08:20:00;;;;;;;8.85;1.63;;;18.40;99.90;;;;;;4995262;28;20531;-78
2022/10/21 08:22:25;;;;;;;1.38;1.20;;;18.30;99.90;;;;;;4995474;28;20172;-77
2022/10/21 08:24:51;;;;;;;7.35;1.75;;;18.10;99.90;;;;;;4995016;28;20213;-85
2022/10/21 08:27:17;;;;;;;7.35;1.40;;;18.30;99.90;;;;;;4993677;28;20283;-77
2022/10/21 08:29:42;;;;;;;4.93;1.50;;;18.30;99.90;;;;;;4993779;28;20208;-78
2022/10/21 08:32:08;;;;;;;8.55;2.25;;;18.30;99.90;;;;;;4994875;28;20300;-80
2022/10/21 08:34:33;;;;;;;3.75;1.38;;;18.20;99.90;;;;;;4995052;28;20165;-77
2022/10/21 08:36:59;;;;;;;5.05;1.40;;;18.30;99.90;;;;;;4995108;28;20567;-85
2022/10/21 08:39:25;;;;;;;4.70;1.25;;;18.30;99.90;;;;;;4995574;28;20247;-85
2022/10/21 08:42:11;;;;;;;4.28;1.40;;;18.40;99.90;;;;;;4994707;28;20211;-77
2022/10/21 08:44:42;;;;;;;10.80;1.38;;;18.50;99.90;;;;;;4994992;28;20211;-79
2022/10/21 08:47:20;;;;;;;2.40;0.93;;;18.50;99.90;;;;;;4998015;28;20193;-77
2022/10/21 08:49:49;;;;;;;3.75;1.23;;;18.60;99.90;;;;;;5009238;28;20180;-76
2022/10/21 08:52:19;;;;;;;3.95;0.98;;;18.60;99.90;;;;;;5008402;28;20213;-82
2022/10/21 08:54:50;;;;;;;4.72;1.50;;;18.70;99.90;;;;;;4995879;28;20188;-92
2022/10/21 08:57:16;;;;;;;7.60;2.10;;;18.70;99.90;;;;;;4995446;28;20559;-77
2022/10/21 08:59:42;;;;;;;4.15;1.50;;;18.90;99.90;;;;;;4995158;28;20180;-95
2022/10/21 09:02:39;;;;;;;12.93;1.30;;;18.80;99.90;;;;;;4995023;28;20169;-80
2022/10/21 09:05:29;;;;;;;6.28;1.10;;;19.00;99.90;;;;;;4998057;28;20197;-78
2022/10/21 09:08:14;;;;;;;2.08;0.75;;;18.90;99.90;;;;;;4997820;28;20587;-78
2022/10/21 09:10:57;;;;;;;1.95;0.63;;;19.00;99.90;;;;;;5004021;28;20169;-79
2022/10/21 09:14:13;;;;;;;7.97;1.17;;;19.10;99.90;;;;;;4999301;28;20645;-78
2022/10/21 09:17:18;;;;;;;2.88;0.63;;;19.40;99.90;;;;;;4966717;28;20671;-78
2022/10/21 09:20:00;;;;;;;1.45;0.60;;;19.40;99.90;;;;;;4979577;28;20296;-96
2022/10/21 09:23:02;;;;;;;4.00;0.95;;;19.40;99.90;;;;;;4995029;28;20207;-83
2022/10/21 09:25:52;;;;;;;1.35;0.63;;;19.40;99.90;;;;;;4995165;28;20678;-90
2022/10/21 09:28:18;;;;;;;4.30;0.93;;;19.20;99.90;;;;;;4995214;28;20157;-78
2022/10/21 09:30:44;;;;;;;1.17;0.47;;;19.20;99.90;;;;;;4994214;28;20169;-93
2022/10/21 09:33:27;;;;;;;0.73;0.50;;;19.00;99.90;;;;;;4994267;28;20177;-78
2022/10/21 09:36:25;;;;;;;3.65;0.65;;;19.00;99.90;;;;;;4997317;28;20276;-81
2022/10/21 09:38:54;;;;;;;7.97;1.20;;;19.10;99.90;;;;;;5004876;28;20176;-78
2022/10/21 09:41:29;;;;;;;1.17;0.70;;;19.40;99.90;;;;;;5003235;28;20176;-80
2022/10/21 09:43:55;;;;;;;1.70;0.45;;;19.40;99.90;;;;;;5002035;28;20215;-78
2022/10/21 09:46:21;;;;;;;2.08;0.60;;;19.50;99.90;;;;;;4996924;28;20284;-91
2022/10/21 09:48:49;;;;;;;1.30;0.70;;;19.30;99.90;;;;;;5002824;28;20631;-82
2022/10/21 09:51:20;;;;;;;1.85;0.45;;;19.40;99.90;;;;;;5005114;28;20169;-78
2022/10/21 09:53:52;;;;;;;2.15;0.63;;;19.60;99.90;;;;;;5002780;28;20165;-91
2022/10/21 09:56:27;;;;;;;2.05;0.57;;;19.70;99.90;;;;;;5006773;28;20252;-86
2022/10/21 09:59:08;;;;;;;0.82;0.55;;;19.70;99.90;;;;;;5000850;28;20183;-79
2022/10/21 10:01:35;;;;;;;3.75;0.80;;;19.90;99.90;;;;;;5000864;28;20187;-77
2022/10/21 10:04:09;;;;;;;1.15;0.43;;;20.00;99.90;;;;;;5004019;28;20271;-78
2022/10/21 10:06:41;;;;;;;2.65;0.45;;;19.90;99.90;;;;;;5002299;28;20224;-78
2022/10/21 10:09:12;;;;;;;3.50;0.60;;;19.90;99.90;;;;;;5002578;28;20610;-79
2022/10/21 10:11:58;;;;;;;2.72;0.73;;;20.00;99.90;;;;;;5001235;28;20638;-80
2022/10/21 10:14:33;;;;;;;0.70;0.50;;;19.90;99.90;;;;;;4997655;28;20199;-78
2022/10/21 10:17:32;;;;;;;1.95;0.80;;;19.70;99.90;;;;;;5002158;28;20188;-92
2022/10/21 10:20:04;;;;;;;3.35;1.65;;;19.70;99.90;;;;;;5006132;28;20161;-90
2022/10/21 10:22:44;;;;;;;2.80;0.82;;;19.60;99.90;;;;;;4995514;28;20179;-85
2022/10/21 10:25:16;;;;;;;2.13;0.63;;;19.60;99.90;;;;;;4993954;28;20216;-79
2022/10/21 10:28:08;;;;;;;0.93;0.70;;;19.40;99.90;;;;;;4998249;28;20179;-87
2022/10/21 10:30:40;;;;;;;1.92;0.90;;;19.40;99.90;;;;;;4997924;28;20200;-80
2022/10/21 10:33:27;;;;;;;3.22;0.80;;;19.30;99.90;;;;;;4996997;28;20200;-80
2022/10/21 10:36:04;;;;;;;8.05;1.33;;;19.40;99.90;;;;;;4996426;28;20203;-78
2022/10/21 10:38:34;;;;;;;1.35;0.80;;;19.40;99.90;;;;;;4997789;28;20165;-79
2022/10/21 10:41:26;;;;;;;4.20;1.02;;;19.40;99.90;;;;;;4997046;28;20169;-79
2022/10/21 10:43:54;;;;;;;2.72;0.95;;;19.40;99.90;;;;;;4995605;28;20296;-79
2022/10/21 10:46:38;;;;;;;1.85;0.90;;;19.50;99.90;;;;;;4995840;28;20189;-79
2022/10/21 10:49:20;;;;;;;1.05;0.90;;;19.60;99.90;;;;;;4996953;28;20252;-79
2022/10/21 10:51:47;;;;;;;1.83;1.00;;;19.60;99.90;;;;;;4996085;28;20176;-79
2022/10/21 10:54:22;;;;;;;1.75;1.33;;;19.70;99.90;;;;;;4997135;28;20174;-80
2022/10/21 10:56:57;;;;;;;1.95;0.90;;;19.90;99.90;;;;;;4997628;28;20239;-79
2022/10/21 10:59:22;;;;;;;3.83;1.10;;;20.00;99.90;;;;;;5003179;28;20207;-78
2022/10/21 11:02:10;;;;;;;2.65;1.30;;;20.00;99.90;;;;;;5002897;28;20177;-79
2022/10/21 11:04:45;;;;;;;0.93;0.80;;;20.10;99.90;;;;;;4993383;28;20247;-78
2022/10/21 11:07:29;;;;;;;2.00;1.20;;;20.20;99.90;;;;;;5005371;28;20220;-78
2022/10/21 11:10:12;;;;;;;2.60;2.40;;;20.30;99.90;;;;;;5003009;28;20165;-78
2022/10/21 11:12:38;;;;;;;2.00;1.17;;;20.50;99.90;;;;;;4998920;28;20192;-79
2022/10/21 11:15:12;;;;;;;2.75;1.20;;;20.60;99.90;;;;;;4996946;28;20554;-80
2022/10/21 11:17:42;;;;;;;1.60;0.70;;;20.70;99.90;;;;;;4998929;28;20189;-79
2022/10/21 11:20:30;;;;;;;0.80;0.65;;;20.80;99.90;;;;;;5011396;28;20165;-83
2022/10/21 11:23:17;;;;;;;3.60;1.00;;;21.00;99.90;;;;;;5012101;28;20168;-80
2022/10/21 11:25:50;;;;;;;1.17;0.80;;;21.10;99.90;;;;;;4999878;28;20205;-80
2022/10/21 11:28:30;;;;;;;4.90;0.77;;;21.20;99.90;;;;;;4981280;28;20235;-81
2022/10/21 11:31:26;;;;;;;4.90;1.30;;;21.10;99.90;;;;;;4998564;28;20244;-80
2022/10/21 11:34:15;;;;;;;6.35;0.90;;;21.00;99.90;;;;;;5000094;28;20169;-80
2022/10/21 11:37:21;;;;;;;11.15;0.80;;;20.90;99.90;;;;;;4997033;28;20714;-94
2022/10/21 11:39:47;;;;;;;1.73;0.98;;;20.70;99.90;;;;;;4998037;28;20632;-93
2022/10/21 11:42:40;;;;;;;2.05;0.90;;;20.80;99.90;;;;;;4999106;28;20201;-86
2022/10/21 11:45:22;;;;;;;1.95;0.60;;;20.70;99.90;;;;;;4998838;28;20216;-79
2022/10/21 11:48:06;;;;;;;8.75;1.00;;;20.70;99.90;;;;;;4996560;28;20173;-80
2022/10/21 11:50:45;;;;;;;3.30;1.40;;;20.60;99.90;;;;;;4998615;28;20176;-79
2022/10/21 11:53:48;;;;;;;10.73;0.93;;;20.40;99.90;;;;;;4999711;28;20185;-90
2022/10/21 11:56:29;;;;;;;3.75;1.00;;;20.40;99.90;;;;;;4997303;28;20669;-80
2022/10/21 11:58:55;;;;;;;2.75;1.70;;;20.30;99.90;;;;;;4998468;28;20180;-80
2022/10/21 12:01:54;;;;;;;1.40;0.90;;;20.30;99.90;;;;;;4995910;28;20173;-84
2022/10/21 12:04:32;;;;;;;5.07;0.82;;;20.30;99.90;;;;;;4999098;28;20209;-80
2022/10/21 12:07:30;;;;;;;3.63;0.80;;;20.30;99.90;;;;;;4994729;28;20215;-79
2022/10/21 12:10:00;;;;;;;1.02;0.80;;;20.30;99.90;;;;;;4998016;28;20601;-79
2022/10/21 12:12:32;;;;;;;0.90;0.68;;;20.20;99.90;;;;;;5002273;28;20188;-80
2022/10/21 12:15:03;;;;;;;1.20;0.60;;;20.10;99.90;;;;;;5001669;28;20193;-79
2022/10/21 12:17:32;;;;;;;1.17;0.80;;;20.20;99.90;;;;;;4999459;28;20197;-78
2022/10/21 12:20:06;;;;;;;3.78;0.88;;;20.20;99.90;;;;;;4997119;28;20169;-78
2022/10/21 12:22:33;;;;;;;1.17;0.80;;;20.30;99.90;;;;;;4994781;28;20180;-80
2022/10/21 12:25:12;;;;;;;5.30;0.88;;;20.20;99.90;;;;;;4996868;28;20746;-92
2022/10/21 12:27:43;;;;;;;4.70;0.85;;;20.20;99.90;;;;;;4995959;28;20200;-78
2022/10/21 12:30:31;;;;;;;2.78;0.93;;;20.20;99.90;;;;;;4995282;28;20170;-78
2022/10/21 12:33:16;;;;;;;5.57;0.70;;;20.10;99.90;;;;;;4995075;28;20173;-84
2022/10/21 12:35:45;;;;;;;1.48;0.93;;;20.10;99.90;;;;;;4994247;28;20191;-80
2022/10/21 12:38:40;;;;;;;2.25;0.75;;;20.10;99.90;;;;;;4994585;28;20161;-79
2022/10/21 12:41:26;;;;;;;13.27;1.20;;;20.10;99.90;;;;;;4994944;28;20180;-79
2022/10/21 12:44:04;;;;;;;1.13;0.80;;;20.30;99.90;;;;;;4994221;28;20211;-80
2022/10/21 12:46:37;;;;;;;5.43;0.90;;;20.20;99.90;;;;;;4992083;28;20793;-79
2022/10/21 12:49:23;;;;;;;3.38;0.80;;;20.30;99.90;;;;;;4993382;28;20213;-79
2022/10/21 12:52:07;;;;;;;1.33;0.90;;;20.20;99.90;;;;;;4993282;28;20173;-80
2022/10/21 12:54:55;;;;;;;2.30;0.95;;;20.40;99.90;;;;;;4994112;28;20173;-79
2022/10/21 12:57:33;;;;;;;5.60;0.57;;;20.40;99.90;;;;;;4992408;28;20670;-80
2022/10/21 13:00:20;;;;;;;0.98;0.73;;;20.40;99.90;;;;;;4993873;28;20169;-81
2022/10/21 13:03:04;;;;;;;1.58;0.93;;;20.40;99.90;;;;;;4995723;28;20252;-80
2022/10/21 13:05:36;;;;;;;2.92;0.60;;;20.30;99.90;;;;;;4997473;28;20193;-90
2022/10/21 13:08:27;;;;;;;0.75;0.43;;;20.30;99.90;;;;;;4993491;28;20173;-82